Time;durP1;ratioP1;P1;durP2;ratioP2;P2;SDS_P1;SDS_P2;PMS_P1;PMS_P2;Temp;Humidity;BMP_temperature;BMP_pressure;BME280_temperature;BME280_humidity;BME280_pressure;Samples;Min_cycle;Max_cycle;Signal;HPM_P1;HPM_P2
2024/03/16 00:02:00;;;;;;;;;;;18.90;59.60;;;;;;5114697;28;20325;-70
2024/03/16 00:04:26;;;;;;;;;;;18.70;60.00;;;;;;5115024;28;19908;-70
2024/03/16 00:06:52;;;;;;;;;;;18.70;60.30;;;;;;5114920;28;19918;-70
2024/03/16 00:09:18;;;;;;;;;;;18.70;59.90;;;;;;5114781;28;20342;-70
2024/03/16 00:11:44;;;;;;;;;;;18.70;59.80;;;;;;5114734;28;19912;-70
2024/03/16 00:14:09;;;;;;;;;;;18.30;59.90;;;;;;5114793;28;19941;-70
2024/03/16 00:16:35;;;;;;;;;;;18.70;59.90;;;;;;5114804;28;20392;-70
2024/03/16 00:19:00;;;;;;;;;;;18.70;60.30;;;;;;5114668;28;19907;-70
2024/03/16 00:21:26;;;;;;;;;;;18.60;60.00;;;;;;5114168;28;19960;-70
2024/03/16 00:23:53;;;;;;;;;;;18.70;60.30;;;;;;5114130;28;19935;-70
2024/03/16 00:26:18;;;;;;;;;;;18.80;60.20;;;;;;5114885;28;19969;-70
2024/03/16 00:28:44;;;;;;;;;;;18.70;60.50;;;;;;5114516;28;20324;-70
2024/03/16 00:31:09;;;;;;;;;;;18.80;60.30;;;;;;5114482;28;19918;-70
2024/03/16 00:33:35;;;;;;;;;;;18.70;60.40;;;;;;5114933;28;20435;-70
2024/03/16 00:36:01;;;;;;;;;;;18.80;60.40;;;;;;5114294;28;19961;-70
2024/03/16 00:38:26;;;;;;;;;;;18.70;60.00;;;;;;5114278;28;19915;-70
2024/03/16 00:40:55;;;;;;;;;;;18.70;60.30;;;;;;5114267;28;19952;-70
2024/03/16 00:43:21;;;;;;;;;;;18.70;57.40;;;;;;5114155;28;20396;-70
2024/03/16 00:45:48;;;;;;;;;;;18.80;60.50;;;;;;5114382;28;20295;-70
2024/03/16 00:48:13;;;;;;;;;;;18.70;60.30;;;;;;5114032;28;19933;-70
2024/03/16 00:50:39;;;;;;;;;;;18.70;60.40;;;;;;5114089;28;19907;-70
2024/03/16 00:53:05;;;;;;;;;;;18.70;60.40;;;;;;5114262;28;19920;-70
2024/03/16 00:55:30;;;;;;;;;;;18.70;60.30;;;;;;5113867;28;20380;-70
2024/03/16 00:57:56;;;;;;;;;;;18.80;60.40;;;;;;5113906;28;19915;-70
2024/03/16 01:00:22;;;;;;;;;;;18.70;60.50;;;;;;5113792;28;19914;-70
2024/03/16 01:02:47;;;;;;;;;;;18.80;60.50;;;;;;5113562;28;19920;-70
2024/03/16 01:05:13;;;;;;;;;;;18.70;60.50;;;;;;5113901;28;19908;-70
2024/03/16 01:07:39;;;;;;;;;;;18.70;60.70;;;;;;5113939;28;20331;-70
2024/03/16 01:10:04;;;;;;;;;;;18.70;60.50;;;;;;5113656;28;19914;-70
2024/03/16 01:12:30;;;;;;;;;;;18.70;59.50;;;;;;5113509;28;19920;-70
2024/03/16 01:14:57;;;;;;;;;;;18.70;60.70;;;;;;5113566;28;19915;-70
2024/03/16 01:17:22;;;;;;;;;;;18.70;60.40;;;;;;5113427;28;19908;-70
2024/03/16 01:19:48;;;;;;;;;;;18.70;60.70;;;;;;5113529;28;19908;-70
2024/03/16 01:22:14;;;;;;;;;;;18.70;60.80;;;;;;5113911;28;19916;-71
2024/03/16 01:24:39;;;;;;;;;;;18.70;60.80;;;;;;5113402;28;19914;-71
2024/03/16 01:27:05;;;;;;;;;;;18.70;60.60;;;;;;5113320;28;19908;-71
2024/03/16 01:29:30;;;;;;;;;;;18.70;60.60;;;;;;5113301;28;20370;-71
2024/03/16 01:31:56;;;;;;;;;;;18.60;60.80;;;;;;5113243;28;19907;-71
2024/03/16 01:34:21;;;;;;;;;;;19.20;61.10;;;;;;5113022;28;19958;-71
2024/03/16 01:36:47;;;;;;;;;;;18.70;60.80;;;;;;5113241;28;19968;-71
2024/03/16 01:39:13;;;;;;;;;;;18.70;60.80;;;;;;5113150;28;19967;-71
2024/03/16 01:41:38;;;;;;;;;;;18.80;60.60;;;;;;5113365;28;19919;-71
2024/03/16 01:44:09;;;;;;;;;;;18.70;60.80;;;;;;5113140;28;19915;-71
2024/03/16 01:46:34;;;;;;;;;;;18.70;61.10;;;;;;5112964;28;19908;-71
2024/03/16 01:49:00;;;;;;;;;;;18.80;60.70;;;;;;5113481;28;19930;-70
2024/03/16 01:51:25;;;;;;;;;;;18.70;60.80;;;;;;5113215;28;20372;-70
2024/03/16 01:53:51;;;;;;;;;;;18.70;60.80;;;;;;5113066;28;20297;-70
2024/03/16 01:56:16;;;;;;;;;;;18.80;60.90;;;;;;5112872;28;19908;-70
2024/03/16 01:58:45;;;;;;;;;;;18.70;60.70;;;;;;5112789;28;19911;-70
2024/03/16 02:01:11;;;;;;;;;;;18.50;59.90;;;;;;5113046;28;19930;-70
2024/03/16 02:03:36;;;;;;;;;;;18.70;60.50;;;;;;5112640;28;20374;-70
2024/03/16 02:06:02;;;;;;;;;;;18.70;60.70;;;;;;5112854;28;19908;-70
2024/03/16 02:08:27;;;;;;;;;;;18.70;60.50;;;;;;5112948;28;19916;-70
2024/03/16 02:10:53;;;;;;;;;;;18.70;60.90;;;;;;5112741;28;19998;-70
2024/03/16 02:13:18;;;;;;;;;;;18.70;60.80;;;;;;5112615;28;20290;-70
2024/03/16 02:15:44;;;;;;;;;;;18.70;61.00;;;;;;5112905;28;19907;-70
2024/03/16 02:18:09;;;;;;;;;;;18.70;60.70;;;;;;5113142;28;20004;-71
2024/03/16 02:20:35;;;;;;;;;;;18.70;60.70;;;;;;5112529;28;19908;-71
2024/03/16 02:23:01;;;;;;;;;;;18.70;60.70;;;;;;5112504;28;20430;-71
2024/03/16 02:25:26;;;;;;;;;;;18.70;60.80;;;;;;5112546;28;19908;-71
2024/03/16 02:27:52;;;;;;;;;;;18.70;60.70;;;;;;5112524;28;19947;-71
2024/03/16 02:30:19;;;;;;;;;;;18.70;60.90;;;;;;5112657;28;19961;-71
2024/03/16 02:32:44;;;;;;;;;;;18.70;60.80;;;;;;5112396;28;19961;-71
2024/03/16 02:35:10;;;;;;;;;;;18.70;60.70;;;;;;5112493;28;20327;-71
2024/03/16 02:37:36;;;;;;;;;;;18.70;60.70;;;;;;5112450;28;19912;-71
2024/03/16 02:40:03;;;;;;;;;;;18.70;61.00;;;;;;5112454;28;20361;-71
2024/03/16 02:42:29;;;;;;;;;;;18.70;60.40;;;;;;5112470;28;19914;-71
2024/03/16 02:44:55;;;;;;;;;;;18.60;60.60;;;;;;5112628;28;20390;-72
2024/03/16 02:47:20;;;;;;;;;;;18.70;61.10;;;;;;5117087;28;19915;-72
2024/03/16 02:49:49;;;;;;;;;;;18.60;60.80;;;;;;5116493;28;19908;-72
2024/03/16 02:52:14;;;;;;;;;;;18.70;61.00;;;;;;5116435;28;19916;-72
2024/03/16 02:54:40;;;;;;;;;;;18.70;61.10;;;;;;5116453;28;20293;-71
2024/03/16 02:57:05;;;;;;;;;;;18.70;61.00;;;;;;5116513;28;20012;-71
2024/03/16 02:59:31;;;;;;;;;;;18.60;61.00;;;;;;5116446;28;19919;-71
2024/03/16 03:01:57;;;;;;;;;;;18.80;60.80;;;;;;5116316;28;19980;-71
2024/03/16 03:04:23;;;;;;;;;;;19.00;61.30;;;;;;5116308;28;19994;-71
2024/03/16 03:06:48;;;;;;;;;;;18.70;61.10;;;;;;5116268;28;19943;-71
2024/03/16 03:09:14;;;;;;;;;;;18.70;61.00;;;;;;5116189;28;19954;-71
2024/03/16 03:11:40;;;;;;;;;;;18.70;61.00;;;;;;5116135;28;19908;-71
2024/03/16 03:14:08;;;;;;;;;;;18.70;61.20;;;;;;5116780;28;19916;-71
2024/03/16 03:16:33;;;;;;;;;;;18.70;58.50;;;;;;5116059;28;19908;-71
2024/03/16 03:18:59;;;;;;;;;;;18.70;61.20;;;;;;5115944;28;19957;-71
2024/03/16 03:21:24;;;;;;;;;;;18.60;60.90;;;;;;5115948;28;19908;-71
2024/03/16 03:23:50;;;;;;;;;;;18.70;60.90;;;;;;5115854;28;19908;-71
2024/03/16 03:26:16;;;;;;;;;;;18.70;61.00;;;;;;5115727;28;20006;-71
2024/03/16 03:28:42;;;;;;;;;;;18.70;61.60;;;;;;5097331;28;20434;-71
2024/03/16 03:31:08;;;;;;;;;;;18.70;60.80;;;;;;5115633;28;19947;-71
2024/03/16 03:33:34;;;;;;;;;;;18.70;60.90;;;;;;5115551;28;19916;-70
2024/03/16 03:36:02;;;;;;;;;;;18.70;60.90;;;;;;5115548;28;20311;-70
2024/03/16 03:38:28;;;;;;;;;;;18.60;60.90;;;;;;5115695;28;19955;-71
2024/03/16 03:40:53;;;;;;;;;;;18.70;60.70;;;;;;5115497;28;19977;-71
2024/03/16 03:43:21;;;;;;;;;;;18.60;60.80;;;;;;5115973;28;19958;-71
2024/03/16 03:45:50;;;;;;;;;;;18.60;61.00;;;;;;5115297;28;19943;-71
2024/03/16 03:48:35;;;;;;;;;;;18.60;60.80;;;;;;5115310;28;19909;-71
2024/03/16 03:51:02;;;;;;;;;;;18.60;60.80;;;;;;5115247;28;20287;-71
2024/03/16 03:53:28;;;;;;;;;;;18.70;60.90;;;;;;5115151;28;20011;-71
2024/03/16 03:55:54;;;;;;;;;;;18.60;60.60;;;;;;5115361;28;19982;-71
2024/03/16 03:58:21;;;;;;;;;;;18.60;60.60;;;;;;5113829;28;19953;-71
2024/03/16 04:00:47;;;;;;;;;;;18.60;60.80;;;;;;5115312;28;19908;-71
2024/03/16 04:03:14;;;;;;;;;;;18.70;60.40;;;;;;5114855;28;20343;-71
2024/03/16 04:05:40;;;;;;;;;;;18.60;60.80;;;;;;5114939;28;20370;-71
2024/03/16 04:08:06;;;;;;;;;;;18.60;60.70;;;;;;5115259;28;20282;-70
2024/03/16 04:10:33;;;;;;;;;;;18.60;60.80;;;;;;5115128;28;19908;-71
2024/03/16 04:12:59;;;;;;;;;;;18.60;60.80;;;;;;5115502;28;20455;-71
2024/03/16 04:15:25;;;;;;;;;;;18.60;60.60;;;;;;5115064;28;20282;-71
2024/03/16 04:17:51;;;;;;;;;;;18.60;60.50;;;;;;5115000;28;19916;-71
2024/03/16 04:20:18;;;;;;;;;;;18.60;60.60;;;;;;5114962;28;19908;-71
2024/03/16 04:22:44;;;;;;;;;;;18.60;60.80;;;;;;5114998;28;19990;-71
2024/03/16 04:25:12;;;;;;;;;;;18.60;60.40;;;;;;5114559;28;19908;-71
2024/03/16 04:27:43;;;;;;;;;;;18.60;60.50;;;;;;5114517;28;20378;-71
2024/03/16 04:30:27;;;;;;;;;;;18.50;57.50;;;;;;5114201;28;19915;-71
2024/03/16 04:33:15;;;;;;;;;;;18.60;60.40;;;;;;5114182;28;19916;-71
2024/03/16 04:35:59;;;;;;;;;;;18.60;60.50;;;;;;5113773;28;19935;-71
2024/03/16 04:38:44;;;;;;;;;;;18.50;60.50;;;;;;5114055;28;19915;-71
2024/03/16 04:41:29;;;;;;;;;;;18.60;60.60;;;;;;5114742;28;20285;-71
2024/03/16 04:44:15;;;;;;;;;;;18.20;60.30;;;;;;5114125;28;19914;-71
2024/03/16 04:47:00;;;;;;;;;;;18.50;60.60;;;;;;5114015;28;19908;-71
2024/03/16 04:49:45;;;;;;;;;;;18.50;60.50;;;;;;5113940;28;19908;-71
2024/03/16 04:52:31;;;;;;;;;;;18.40;60.40;;;;;;5114059;28;19920;-71
2024/03/16 04:55:16;;;;;;;;;;;18.50;60.50;;;;;;5113829;28;20002;-71
2024/03/16 04:58:04;;;;;;;;;;;18.50;60.60;;;;;;5113844;28;20372;-71
2024/03/16 05:00:47;;;;;;;;;;;18.40;60.20;;;;;;5113397;28;19976;-71
2024/03/16 05:03:33;;;;;;;;;;;18.60;59.90;;;;;;5098204;28;19920;-70
2024/03/16 05:06:18;;;;;;;;;;;18.40;60.50;;;;;;5113625;28;20340;-71
2024/03/16 05:09:10;;;;;;;;;;;18.50;60.70;;;;;;5113640;28;19908;-71
2024/03/16 05:11:55;;;;;;;;;;;18.40;59.10;;;;;;5113457;28;19907;-71
2024/03/16 05:14:21;;;;;;;;;;;18.50;60.40;;;;;;5113587;28;19980;-71
2024/03/16 05:16:46;;;;;;;;;;;18.40;60.40;;;;;;5113595;28;20538;-71
2024/03/16 05:19:12;;;;;;;;;;;18.40;60.40;;;;;;5113530;28;20022;-71
2024/03/16 05:21:37;;;;;;;;;;;18.40;60.50;;;;;;5113649;28;20278;-71
2024/03/16 05:24:03;;;;;;;;;;;18.40;60.50;;;;;;5113478;28;19973;-71
2024/03/16 05:26:30;;;;;;;;;;;18.40;60.10;;;;;;5113378;28;19939;-70
2024/03/16 05:28:56;;;;;;;;;;;18.40;60.20;;;;;;5113596;28;19954;-71
2024/03/16 05:31:22;;;;;;;;;;;18.40;60.50;;;;;;5113478;28;19935;-71
2024/03/16 05:33:49;;;;;;;;;;;18.40;60.30;;;;;;5113158;28;19920;-71
2024/03/16 05:36:14;;;;;;;;;;;18.40;60.40;;;;;;5094930;28;19999;-70
2024/03/16 05:38:40;;;;;;;;;;;18.30;60.60;;;;;;5113700;28;19951;-71
2024/03/16 05:41:06;;;;;;;;;;;18.30;60.30;;;;;;5113019;28;19908;-70
2024/03/16 05:43:32;;;;;;;;;;;18.30;60.50;;;;;;5113082;28;19912;-71
2024/03/16 05:45:57;;;;;;;;;;;18.20;60.40;;;;;;5113211;28;20377;-70
2024/03/16 05:48:23;;;;;;;;;;;18.30;60.40;;;;;;5112956;28;20380;-71
2024/03/16 05:50:48;;;;;;;;;;;18.50;60.50;;;;;;5113012;28;19908;-71
2024/03/16 05:53:14;;;;;;;;;;;18.30;60.60;;;;;;5112859;28;19916;-71
2024/03/16 05:55:40;;;;;;;;;;;18.30;60.50;;;;;;5112818;28;20010;-71
2024/03/16 05:58:05;;;;;;;;;;;18.30;60.70;;;;;;5112797;28;20362;-71
2024/03/16 06:00:32;;;;;;;;;;;18.30;60.50;;;;;;5112482;28;20015;-70
2024/03/16 06:02:58;;;;;;;;;;;18.40;60.10;;;;;;5112331;28;20336;-71
2024/03/16 06:05:24;;;;;;;;;;;18.40;60.30;;;;;;5113193;28;19908;-71
2024/03/16 06:07:49;;;;;;;;;;;18.70;61.10;;;;;;5112580;28;20027;-71
2024/03/16 06:10:15;;;;;;;;;;;18.30;60.60;;;;;;5112552;28;19911;-71
2024/03/16 06:12:40;;;;;;;;;;;18.30;60.70;;;;;;5112544;28;19916;-71
2024/03/16 06:15:06;;;;;;;;;;;18.30;60.80;;;;;;5112496;28;20002;-71
2024/03/16 06:17:32;;;;;;;;;;;18.30;60.20;;;;;;5112580;28;19912;-71
2024/03/16 06:19:57;;;;;;;;;;;18.30;60.90;;;;;;5111606;28;19908;-71
2024/03/16 06:22:23;;;;;;;;;;;18.30;61.00;;;;;;5112465;28;20433;-71
2024/03/16 06:24:48;;;;;;;;;;;18.20;60.80;;;;;;5112454;28;19975;-71
2024/03/16 06:27:18;;;;;;;;;;;18.30;61.20;;;;;;5112409;28;19931;-71
2024/03/16 06:29:51;;;;;;;;;;;18.30;60.90;;;;;;5112305;28;19953;-71
2024/03/16 06:32:20;;;;;;;;;;;18.20;57.90;;;;;;5119213;28;19938;-71
2024/03/16 06:34:49;;;;;;;;;;;18.40;61.00;;;;;;5112796;28;19908;-71
2024/03/16 06:37:15;;;;;;;;;;;18.30;58.10;;;;;;5112352;28;19908;-71
2024/03/16 06:39:41;;;;;;;;;;;18.20;61.10;;;;;;5112243;28;19908;-71
2024/03/16 06:42:06;;;;;;;;;;;18.20;61.40;;;;;;5112227;28;19908;-71
2024/03/16 06:44:32;;;;;;;;;;;18.20;61.30;;;;;;5112298;28;19914;-71
2024/03/16 06:46:57;;;;;;;;;;;18.30;61.70;;;;;;5112354;28;20336;-71
2024/03/16 06:49:23;;;;;;;;;;;18.30;61.60;;;;;;5112309;28;19947;-71
2024/03/16 06:51:48;;;;;;;;;;;18.20;61.50;;;;;;5112199;28;19962;-71
2024/03/16 06:54:14;;;;;;;;;;;18.20;61.50;;;;;;5111947;28;20038;-71
2024/03/16 06:56:39;;;;;;;;;;;18.20;61.30;;;;;;5112098;28;19915;-71
2024/03/16 06:59:05;;;;;;;;;;;18.20;61.40;;;;;;5112125;28;19953;-70
2024/03/16 07:01:31;;;;;;;;;;;18.30;61.10;;;;;;5111793;28;20075;-71
2024/03/16 07:03:56;;;;;;;;;;;18.40;61.20;;;;;;5094314;28;19943;-70
2024/03/16 07:06:23;;;;;;;;;;;18.20;61.40;;;;;;5112099;28;19908;-71
2024/03/16 07:08:48;;;;;;;;;;;18.20;61.30;;;;;;5112019;28;19908;-71
2024/03/16 07:11:14;;;;;;;;;;;18.20;61.20;;;;;;5112025;28;19961;-70
2024/03/16 07:13:39;;;;;;;;;;;18.30;61.50;;;;;;5111944;28;19923;-71
2024/03/16 07:16:09;;;;;;;;;;;18.20;61.40;;;;;;5111904;28;19952;-70
2024/03/16 07:18:35;;;;;;;;;;;18.20;61.30;;;;;;5112171;28;20419;-71
2024/03/16 07:21:01;;;;;;;;;;;18.20;61.40;;;;;;5111884;28;19912;-71
2024/03/16 07:23:26;;;;;;;;;;;18.30;61.60;;;;;;5111931;28;19908;-71
2024/03/16 07:25:52;;;;;;;;;;;18.20;61.80;;;;;;5111802;28;20010;-71
2024/03/16 07:28:18;;;;;;;;;;;18.20;61.40;;;;;;5111824;28;19908;-71
2024/03/16 07:30:43;;;;;;;;;;;18.20;61.40;;;;;;5112307;28;19961;-70
2024/03/16 07:33:11;;;;;;;;;;;18.20;61.70;;;;;;5115269;28;19920;-70
2024/03/16 07:35:39;;;;;;;;;;;18.20;61.40;;;;;;5115628;28;19907;-70
2024/03/16 07:38:05;;;;;;;;;;;18.20;61.60;;;;;;5115318;28;19908;-74
2024/03/16 07:40:31;;;;;;;;;;;18.10;61.50;;;;;;5115313;28;20365;-70
2024/03/16 07:42:57;;;;;;;;;;;18.20;62.30;;;;;;5115295;28;20013;-70
2024/03/16 07:45:22;;;;;;;;;;;18.20;61.80;;;;;;5115233;28;19908;-70
2024/03/16 07:47:48;;;;;;;;;;;18.30;61.80;;;;;;5115132;28;19970;-70
2024/03/16 07:50:13;;;;;;;;;;;18.20;61.70;;;;;;5115063;28;19979;-72
2024/03/16 07:52:39;;;;;;;;;;;18.30;62.00;;;;;;5114969;28;19915;-70
2024/03/16 07:55:06;;;;;;;;;;;18.30;61.70;;;;;;5115043;28;20013;-69
2024/03/16 07:57:32;;;;;;;;;;;18.30;61.30;;;;;;5115242;28;20395;-71
2024/03/16 07:59:57;;;;;;;;;;;18.30;61.80;;;;;;5115432;28;20023;-70
2024/03/16 08:02:23;;;;;;;;;;;18.30;61.30;;;;;;5114679;28;19926;-71
2024/03/16 08:04:48;;;;;;;;;;;18.30;61.90;;;;;;5096471;28;19915;-72
2024/03/16 08:07:14;;;;;;;;;;;18.30;61.70;;;;;;5114791;28;19930;-71
2024/03/16 08:09:39;;;;;;;;;;;18.20;61.60;;;;;;5114736;28;19914;-71
2024/03/16 08:12:05;;;;;;;;;;;18.30;62.60;;;;;;5114689;28;20350;-71
2024/03/16 08:14:34;;;;;;;;;;;18.30;61.20;;;;;;5114610;28;19918;-68
2024/03/16 08:17:06;;;;;;;;;;;18.30;61.60;;;;;;5114556;28;19915;-69
2024/03/16 08:19:31;;;;;;;;;;;18.40;58.90;;;;;;5114655;28;19916;-71
2024/03/16 08:21:57;;;;;;;;;;;18.30;61.70;;;;;;5114459;28;20390;-69
2024/03/16 08:24:23;;;;;;;;;;;18.30;62.00;;;;;;5114507;28;19998;-71
2024/03/16 08:26:48;;;;;;;;;;;18.30;61.80;;;;;;5114699;28;20090;-70
2024/03/16 08:29:13;;;;;;;;;;;18.30;61.90;;;;;;5115113;28;19943;-70
2024/03/16 08:31:39;;;;;;;;;;;18.20;61.80;;;;;;5114303;28;20377;-72
2024/03/16 08:34:04;;;;;;;;;;;18.20;62.00;;;;;;5114244;28;19969;-69
2024/03/16 08:36:30;;;;;;;;;;;18.30;62.00;;;;;;5114266;28;19930;-73
2024/03/16 08:38:56;;;;;;;;;;;18.20;61.40;;;;;;5114259;28;19915;-71
2024/03/16 08:41:22;;;;;;;;;;;18.20;61.80;;;;;;5114169;28;19987;-70
2024/03/16 08:43:48;;;;;;;;;;;18.30;62.00;;;;;;5113556;28;19907;-70
2024/03/16 08:46:14;;;;;;;;;;;18.30;61.90;;;;;;5114015;28;19908;-70
2024/03/16 08:48:39;;;;;;;;;;;18.30;62.00;;;;;;5114007;28;20002;-70
2024/03/16 08:51:05;;;;;;;;;;;18.30;62.00;;;;;;5113805;28;19930;-71
2024/03/16 08:53:31;;;;;;;;;;;18.30;61.60;;;;;;5113819;28;19916;-70
2024/03/16 08:55:58;;;;;;;;;;;16.90;60.90;;;;;;5114316;28;20297;-70
2024/03/16 08:58:29;;;;;;;;;;;18.40;61.40;;;;;;5113755;28;20285;-69
2024/03/16 09:00:54;;;;;;;;;;;18.40;61.40;;;;;;5113654;28;19908;-70
2024/03/16 09:03:20;;;;;;;;;;;18.40;60.90;;;;;;5113397;28;19959;-70
2024/03/16 09:05:46;;;;;;;;;;;18.30;61.30;;;;;;5113405;28;19911;-70
2024/03/16 09:08:11;;;;;;;;;;;18.30;61.10;;;;;;5114211;28;19912;-70
2024/03/16 09:10:37;;;;;;;;;;;18.30;61.20;;;;;;5113747;28;19915;-70
2024/03/16 09:13:03;;;;;;;;;;;18.30;60.90;;;;;;5113446;28;19915;-69
2024/03/16 09:15:28;;;;;;;;;;;18.30;60.60;;;;;;5113342;28;20234;-68
2024/03/16 09:17:54;;;;;;;;;;;18.30;61.10;;;;;;5113341;28;19995;-68
2024/03/16 09:20:20;;;;;;;;;;;18.30;60.90;;;;;;5113268;28;19908;-70
2024/03/16 09:22:45;;;;;;;;;;;18.30;61.00;;;;;;5113313;28;19908;-70
2024/03/16 09:25:11;;;;;;;;;;;18.30;61.00;;;;;;5113701;28;19920;-71
2024/03/16 09:27:37;;;;;;;;;;;18.30;61.20;;;;;;5113203;28;19908;-70
2024/03/16 09:30:08;;;;;;;;;;;18.30;61.10;;;;;;5113161;28;19919;-70
2024/03/16 09:32:34;;;;;;;;;;;18.30;60.40;;;;;;5113113;28;19915;-69
2024/03/16 09:34:59;;;;;;;;;;;18.30;60.80;;;;;;5113151;28;20408;-70
2024/03/16 09:37:25;;;;;;;;;;;18.30;61.00;;;;;;5113171;28;20024;-71
2024/03/16 09:39:51;;;;;;;;;;;18.30;60.90;;;;;;5113041;28;19908;-70
2024/03/16 09:42:17;;;;;;;;;;;18.30;60.90;;;;;;5112877;28;20259;-70
2024/03/16 09:44:44;;;;;;;;;;;18.30;60.80;;;;;;5113010;28;19958;-69
2024/03/16 09:47:12;;;;;;;;;;;18.30;61.10;;;;;;5113353;28;19916;-70
2024/03/16 09:49:37;;;;;;;;;;;18.30;61.20;;;;;;5112708;28;19912;-70
2024/03/16 09:52:03;;;;;;;;;;;18.30;61.20;;;;;;5112644;28;19908;-70
2024/03/16 09:54:31;;;;;;;;;;;18.30;60.70;;;;;;5113453;28;20282;-70
2024/03/16 09:56:57;;;;;;;;;;;18.40;60.90;;;;;;5112733;28;19912;-71
2024/03/16 09:59:24;;;;;;;;;;;18.30;60.90;;;;;;5112657;28;19939;-70
2024/03/16 10:01:50;;;;;;;;;;;18.40;60.80;;;;;;5112476;28;20373;-71
2024/03/16 10:04:16;;;;;;;;;;;18.30;61.00;;;;;;5112595;28;19960;-70
2024/03/16 10:06:42;;;;;;;;;;;18.30;60.90;;;;;;5112936;28;20289;-70
2024/03/16 10:09:15;;;;;;;;;;;18.40;61.20;;;;;;5112876;28;19908;-70
2024/03/16 10:12:09;;;;;;;;;;;18.30;60.40;;;;;;5110878;28;19908;-70
2024/03/16 10:14:35;;;;;;;;;;;18.40;58.10;;;;;;5112506;28;19950;-70
2024/03/16 10:17:01;;;;;;;;;;;18.40;61.30;;;;;;5112428;28;19947;-70
2024/03/16 10:19:27;;;;;;;;;;;18.40;61.00;;;;;;5112444;28;19960;-71
2024/03/16 10:21:53;;;;;;;;;;;18.50;61.60;;;;;;5112885;28;19907;-72
2024/03/16 10:24:20;;;;;;;;;;;18.40;61.40;;;;;;5112443;28;19960;-73
2024/03/16 10:26:47;;;;;;;;;;;18.50;60.80;;;;;;5112657;28;19912;-73
2024/03/16 10:29:15;;;;;;;;;;;18.40;61.20;;;;;;5112368;28;19915;-73
2024/03/16 10:31:41;;;;;;;;;;;18.30;60.90;;;;;;5112576;28;19912;-73
2024/03/16 10:34:07;;;;;;;;;;;18.40;60.90;;;;;;5112492;28;19916;-72
2024/03/16 10:36:33;;;;;;;;;;;18.40;61.00;;;;;;5112623;28;19958;-72
2024/03/16 10:39:00;;;;;;;;;;;20.00;61.90;;;;;;5112495;28;19907;-71
2024/03/16 10:41:28;;;;;;;;;;;18.40;61.40;;;;;;5112479;28;19991;-72
2024/03/16 10:43:55;;;;;;;;;;;18.40;60.90;;;;;;5112482;28;19908;-73
2024/03/16 10:46:20;;;;;;;;;;;18.40;61.00;;;;;;5112328;28;19960;-71
2024/03/16 10:48:46;;;;;;;;;;;18.60;60.80;;;;;;5112213;28;19908;-72
2024/03/16 10:51:15;;;;;;;;;;;18.40;60.90;;;;;;5112463;28;20007;-72
2024/03/16 10:53:41;;;;;;;;;;;18.40;60.90;;;;;;5112183;28;19969;-72
2024/03/16 10:56:07;;;;;;;;;;;18.40;60.60;;;;;;5112241;28;19908;-71
2024/03/16 10:58:32;;;;;;;;;;;18.40;60.70;;;;;;5112179;28;19915;-72
2024/03/16 11:01:03;;;;;;;;;;;18.10;60.20;;;;;;5112407;28;19915;-73
2024/03/16 11:03:31;;;;;;;;;;;18.50;60.30;;;;;;5111734;28;20031;-72
2024/03/16 11:06:00;;;;;;;;;;;18.40;60.90;;;;;;5112287;28;19908;-72
2024/03/16 11:08:36;;;;;;;;;;;18.40;60.50;;;;;;5115997;28;19907;-71
2024/03/16 11:11:02;;;;;;;;;;;18.40;57.40;;;;;;5116045;28;19911;-74
2024/03/16 11:13:28;;;;;;;;;;;18.40;60.60;;;;;;5115829;28;19916;-71
2024/03/16 11:15:54;;;;;;;;;;;18.40;60.40;;;;;;5115770;28;19907;-72
2024/03/16 11:18:19;;;;;;;;;;;18.40;60.60;;;;;;5115821;28;19920;-72
2024/03/16 11:20:53;;;;;;;;;;;18.50;60.40;;;;;;5115778;28;19908;-71
2024/03/16 11:23:22;;;;;;;;;;;18.50;60.70;;;;;;5115902;28;19907;-72
2024/03/16 11:25:50;;;;;;;;;;;18.40;57.50;;;;;;5115658;28;19908;-72
2024/03/16 11:28:17;;;;;;;;;;;18.40;59.10;;;;;;5115631;28;19908;-72
2024/03/16 11:30:50;;;;;;;;;;;18.50;60.40;;;;;;5115579;28;19908;-71
2024/03/16 11:33:16;;;;;;;;;;;18.40;60.80;;;;;;5115420;28;19915;-72
2024/03/16 11:35:42;;;;;;;;;;;18.40;60.30;;;;;;5115489;28;19916;-71
2024/03/16 11:38:10;;;;;;;;;;;17.70;59.90;;;;;;5115334;28;20436;-70
2024/03/16 11:40:40;;;;;;;;;;;18.40;60.50;;;;;;5097343;28;19932;-71
2024/03/16 11:43:08;;;;;;;;;;;18.80;60.80;;;;;;5115582;28;19915;-70
2024/03/16 11:45:34;;;;;;;;;;;18.40;60.60;;;;;;5115294;28;19908;-71
2024/03/16 11:48:00;;;;;;;;;;;18.40;60.60;;;;;;5115420;28;20024;-70
2024/03/16 11:50:26;;;;;;;;;;;18.40;60.40;;;;;;5115265;28;19990;-70
2024/03/16 11:52:52;;;;;;;;;;;18.30;60.60;;;;;;5114867;28;20065;-72
2024/03/16 11:55:23;;;;;;;;;;;18.50;60.50;;;;;;5115153;28;20008;-72
2024/03/16 11:57:49;;;;;;;;;;;18.50;57.50;;;;;;5114959;28;19908;-71
2024/03/16 12:00:17;;;;;;;;;;;18.40;60.80;;;;;;5115000;28;20434;-72
2024/03/16 12:02:46;;;;;;;;;;;18.60;60.20;;;;;;5114541;28;19927;-72
2024/03/16 12:05:13;;;;;;;;;;;18.50;60.10;;;;;;5114902;28;20323;-71
2024/03/16 12:07:39;;;;;;;;;;;18.60;60.60;;;;;;5114959;28;19908;-70
2024/03/16 12:10:08;;;;;;;;;;;18.40;60.50;;;;;;5114683;28;19908;-69
2024/03/16 12:12:37;;;;;;;;;;;18.10;57.30;;;;;;5114710;28;19915;-70
2024/03/16 12:15:17;;;;;;;;;;;18.50;57.50;;;;;;5114637;28;19976;-70
2024/03/16 12:17:46;;;;;;;;;;;18.50;57.70;;;;;;5113547;28;19915;-69
2024/03/16 12:20:12;;;;;;;;;;;18.40;57.50;;;;;;5096241;28;19918;-70
2024/03/16 12:22:44;;;;;;;;;;;18.50;60.90;;;;;;5114543;28;20381;-69
2024/03/16 12:25:10;;;;;;;;;;;18.50;57.70;;;;;;5114526;28;19962;-69
2024/03/16 12:27:39;;;;;;;;;;;18.50;61.20;;;;;;5114349;28;19908;-69
2024/03/16 12:30:05;;;;;;;;;;;18.50;58.00;;;;;;5114351;28;20279;-69
2024/03/16 12:32:30;;;;;;;;;;;18.90;59.10;;;;;;5114565;28;20034;-69
2024/03/16 12:34:56;;;;;;;;;;;18.80;60.10;;;;;;5114305;28;20405;-70
2024/03/16 12:37:21;;;;;;;;;;;18.90;59.60;;;;;;5114286;28;19912;-69
2024/03/16 12:39:47;;;;;;;;;;;19.10;59.70;;;;;;5114169;28;19943;-70
2024/03/16 12:42:12;;;;;;;;;;;18.90;59.80;;;;;;5114657;28;19907;-70
2024/03/16 12:44:38;;;;;;;;;;;19.00;59.20;;;;;;5114032;28;19908;-69
2024/03/16 12:47:03;;;;;;;;;;;19.10;59.10;;;;;;5114269;28;19915;-69
2024/03/16 12:49:29;;;;;;;;;;;19.10;59.20;;;;;;5114374;28;19912;-69
2024/03/16 12:51:54;;;;;;;;;;;19.50;59.10;;;;;;5114020;28;19911;-69
2024/03/16 12:54:20;;;;;;;;;;;19.00;59.20;;;;;;5113848;28;19922;-69
2024/03/16 12:56:50;;;;;;;;;;;19.00;59.30;;;;;;5113880;28;19930;-69
2024/03/16 12:59:15;;;;;;;;;;;19.00;56.80;;;;;;5113723;28;19944;-69
2024/03/16 13:01:41;;;;;;;;;;;19.00;59.00;;;;;;5113549;28;19915;-69
2024/03/16 13:04:08;;;;;;;;;;;18.90;59.50;;;;;;5113592;28;19916;-69
2024/03/16 13:06:33;;;;;;;;;;;18.90;59.50;;;;;;5113669;28;19907;-69
2024/03/16 13:09:04;;;;;;;;;;;18.90;59.80;;;;;;5114162;28;19908;-69
2024/03/16 13:11:29;;;;;;;;;;;18.80;59.80;;;;;;5113934;28;19908;-69
2024/03/16 13:13:55;;;;;;;;;;;18.90;59.90;;;;;;5113522;28;19916;-69
2024/03/16 13:16:21;;;;;;;;;;;18.80;60.00;;;;;;5113405;28;19915;-69
2024/03/16 13:18:47;;;;;;;;;;;18.80;60.10;;;;;;5113137;28;19907;-69
2024/03/16 13:21:13;;;;;;;;;;;18.80;60.00;;;;;;5113625;28;19915;-70
2024/03/16 13:23:39;;;;;;;;;;;18.80;59.60;;;;;;5113617;28;19908;-69
2024/03/16 13:26:08;;;;;;;;;;;20.00;60.60;;;;;;5113189;28;19907;-69
2024/03/16 13:28:34;;;;;;;;;;;19.00;58.30;;;;;;5113034;28;20328;-69
2024/03/16 13:31:00;;;;;;;;;;;18.80;59.70;;;;;;5112913;28;19908;-70
2024/03/16 13:33:25;;;;;;;;;;;18.80;60.30;;;;;;5113025;28;19968;-69
2024/03/16 13:35:53;;;;;;;;;;;19.10;60.50;;;;;;5113036;28;19912;-69
2024/03/16 13:38:19;;;;;;;;;;;18.80;60.20;;;;;;5113424;28;19908;-69
2024/03/16 13:40:45;;;;;;;;;;;18.90;59.80;;;;;;5113119;28;19911;-70
2024/03/16 13:43:12;;;;;;;;;;;19.20;60.20;;;;;;5112970;28;19943;-70
2024/03/16 13:45:40;;;;;;;;;;;18.90;60.00;;;;;;5112842;28;19961;-70
2024/03/16 13:48:07;;;;;;;;;;;18.70;60.10;;;;;;5112931;28;19908;-70
2024/03/16 13:50:33;;;;;;;;;;;18.90;59.60;;;;;;5112880;28;19915;-71
2024/03/16 13:52:58;;;;;;;;;;;19.00;59.90;;;;;;5112750;28;19916;-72
2024/03/16 13:55:27;;;;;;;;;;;19.00;59.60;;;;;;5113036;28;19943;-73
2024/03/16 13:57:53;;;;;;;;;;;19.10;59.50;;;;;;5112971;28;19911;-73
2024/03/16 14:00:19;;;;;;;;;;;19.10;59.40;;;;;;5112687;28;20370;-70
2024/03/16 14:02:49;;;;;;;;;;;19.10;58.80;;;;;;5112277;28;19931;-71
2024/03/16 14:05:14;;;;;;;;;;;19.00;56.40;;;;;;5112581;28;19907;-76
2024/03/16 14:07:40;;;;;;;;;;;19.10;59.70;;;;;;5113266;28;19907;-70
2024/03/16 14:10:08;;;;;;;;;;;19.00;59.30;;;;;;5112515;28;19930;-69
2024/03/16 14:12:33;;;;;;;;;;;19.20;58.10;;;;;;5112264;28;19908;-70
2024/03/16 14:15:00;;;;;;;;;;;19.20;58.80;;;;;;5112344;28;20003;-70
2024/03/16 14:17:26;;;;;;;;;;;19.20;58.80;;;;;;5112662;28;19908;-70